createdAt,value
2023-01-01T00:01:43.522Z,9.40
2023-01-01T00:04:16.187Z,9.40
2023-01-01T00:06:48.725Z,9.50
2023-01-01T00:09:36.636Z,9.40
2023-01-01T00:12:09.200Z,9.40
2023-01-01T00:14:44.540Z,9.50
2023-01-01T00:17:16.898Z,9.50
2023-01-01T00:19:49.264Z,9.40
2023-01-01T00:22:53.369Z,9.50
2023-01-01T00:25:14.922Z,9.40
2023-01-01T00:27:47.240Z,9.50
2023-01-01T00:30:19.912Z,9.40
2023-01-01T00:32:55.644Z,9.40
2023-01-01T00:35:29.106Z,9.40
2023-01-01T00:38:02.467Z,9.30
2023-01-01T00:40:35.081Z,9.30
2023-01-01T00:43:07.526Z,9.30
2023-01-01T00:45:40.073Z,9.30
2023-01-01T00:48:12.767Z,9.30
2023-01-01T00:50:45.297Z,9.30
2023-01-01T00:53:17.843Z,9.30
2023-01-01T00:55:50.915Z,9.40
2023-01-01T00:58:24.190Z,9.30
2023-01-01T01:00:56.819Z,9.30
2023-01-01T01:03:29.426Z,9.30
2023-01-01T01:06:03.008Z,9.30
2023-01-01T01:08:36.139Z,9.30
2023-01-01T01:11:09.991Z,9.40
2023-01-01T01:13:43.472Z,9.30
2023-01-01T01:16:18.066Z,9.40
2023-01-01T01:18:51.915Z,9.40
2023-01-01T01:21:24.740Z,9.40
2023-01-01T01:23:59.156Z,9.40
2023-01-01T01:26:32.715Z,9.40
2023-01-01T01:29:05.199Z,9.40
2023-01-01T01:31:37.709Z,9.40
2023-01-01T01:34:15.377Z,9.40
2023-01-01T01:36:48.873Z,9.40
2023-01-01T01:39:21.301Z,9.40
2023-01-01T01:41:53.762Z,9.30
2023-01-01T01:44:42.136Z,9.30
2023-01-01T01:47:17.851Z,9.30
2023-01-01T01:49:53.176Z,9.30
2023-01-01T01:52:27.948Z,9.30
2023-01-01T01:55:02.363Z,9.30
2023-01-01T01:57:34.976Z,9.30
2023-01-01T02:00:11.182Z,9.30
2023-01-01T02:02:51.645Z,9.30
2023-01-01T02:05:25.536Z,9.30
2023-01-01T02:07:58.955Z,9.30
2023-01-01T02:10:31.588Z,9.30
2023-01-01T02:13:03.978Z,9.30
2023-01-01T02:15:41.447Z,9.30
2023-01-01T02:18:15.198Z,9.30
2023-01-01T02:20:48.842Z,9.30
2023-01-01T02:23:26.370Z,9.30
2023-01-01T02:26:05.331Z,9.30
2023-01-01T02:28:53.404Z,9.40
2023-01-01T02:31:28.199Z,9.30
2023-01-01T02:34:02.452Z,9.40
2023-01-01T02:36:35.805Z,9.30
2023-01-01T02:39:09.294Z,9.30
2023-01-01T02:41:43.708Z,8.60
2023-01-01T02:44:16.820Z,9.30
2023-01-01T02:46:49.225Z,9.30
2023-01-01T02:49:21.672Z,9.30
2023-01-01T02:52:09.571Z,9.30
2023-01-01T02:54:42.179Z,9.30
2023-01-01T02:57:24.645Z,9.30
2023-01-01T03:00:22.525Z,9.30
2023-01-01T03:02:56.281Z,9.30
2023-01-01T03:05:34.129Z,9.30
2023-01-01T03:08:14.871Z,9.30
2023-01-01T03:10:47.493Z,9.30
2023-01-01T03:13:29.114Z,9.30
2023-01-01T03:16:02.802Z,9.30
2023-01-01T03:18:50.366Z,9.30
2023-01-01T03:21:22.672Z,9.30
2023-01-01T03:23:56.300Z,9.30
2023-01-01T03:26:32.058Z,9.30
2023-01-01T03:29:05.872Z,9.40
2023-01-01T03:31:41.227Z,9.40
2023-01-01T03:34:17.452Z,9.30
2023-01-01T03:36:52.634Z,9.30
2023-01-01T03:39:29.692Z,9.30
2023-01-01T03:42:02.305Z,9.40
2023-01-01T03:44:36.289Z,9.40
2023-01-01T03:47:08.731Z,9.40
2023-01-01T03:49:41.376Z,9.30
2023-01-01T03:52:28.935Z,9.30
2023-01-01T03:55:01.502Z,9.30
2023-01-01T03:57:49.638Z,9.30
2023-01-01T04:00:23.657Z,9.40
2023-01-01T04:02:57.928Z,9.40
2023-01-01T04:05:31.987Z,9.40
2023-01-01T04:08:05.477Z,9.40
2023-01-01T04:10:39.921Z,9.40
2023-01-01T04:13:12.966Z,9.40
2023-01-01T04:15:45.357Z,9.40
2023-01-01T04:18:18.368Z,9.40
2023-01-01T04:20:50.689Z,9.40
2023-01-01T04:23:23.058Z,9.40
2023-01-01T04:25:55.624Z,9.40
2023-01-01T04:28:27.922Z,9.40
2023-01-01T04:33:33.375Z,9.40
2023-01-01T04:36:07.583Z,9.40
2023-01-01T04:38:39.856Z,9.30
2023-01-01T04:41:12.207Z,9.40
2023-01-01T04:43:49.993Z,9.40
2023-01-01T04:46:22.848Z,9.40
2023-01-01T04:48:55.180Z,9.30
2023-01-01T04:51:27.754Z,9.30
2023-01-01T04:54:00.437Z,9.30
2023-01-01T04:56:32.921Z,9.40
2023-01-01T04:59:05.237Z,9.40
2023-01-01T05:01:37.749Z,9.30
2023-01-01T05:04:13.120Z,9.40
2023-01-01T05:06:45.543Z,9.40
2023-01-01T05:09:17.997Z,9.40
2023-01-01T05:11:50.354Z,9.40
2023-01-01T05:14:22.915Z,9.40
2023-01-01T05:16:55.547Z,9.40
2023-01-01T05:19:28.003Z,9.40
2023-01-01T05:22:05.351Z,9.40
2023-01-01T05:24:41.458Z,9.40
2023-01-01T05:27:13.912Z,9.40
2023-01-01T05:29:46.336Z,9.30
2023-01-01T05:32:18.817Z,9.30
2023-01-01T05:34:51.794Z,9.30
2023-01-01T05:37:24.383Z,9.40
2023-01-01T05:39:56.837Z,9.40
2023-01-01T05:42:29.181Z,9.40
2023-01-01T05:45:01.687Z,9.40
2023-01-01T05:47:34.042Z,9.40
2023-01-01T05:52:38.086Z,9.40
2023-01-01T05:55:10.634Z,9.40
2023-01-01T05:57:43.070Z,9.30
2023-01-01T06:00:15.747Z,9.30
2023-01-01T06:02:50.230Z,9.30
2023-01-01T06:05:22.696Z,9.20
2023-01-01T06:07:54.903Z,9.20
2023-01-01T06:10:27.164Z,9.20
2023-01-01T06:12:59.522Z,9.20
2023-01-01T06:15:31.924Z,9.10
2023-01-01T06:18:04.334Z,9.10
2023-01-01T06:20:36.673Z,9.10
2023-01-01T06:23:09.115Z,9.10
2023-01-01T06:25:41.529Z,9.10
2023-01-01T06:28:13.945Z,9.10
2023-01-01T06:30:46.260Z,9.10
2023-01-01T06:33:18.857Z,9.10
2023-01-01T06:35:51.283Z,9.10
2023-01-01T06:38:23.698Z,9.20
2023-01-01T06:40:57.097Z,9.20
2023-01-01T06:43:30.743Z,9.20
2023-01-01T06:46:07.480Z,9.20
2023-01-01T06:48:39.921Z,9.20
2023-01-01T06:51:13.761Z,9.10
2023-01-01T06:53:46.714Z,9.10
2023-01-01T06:56:19.536Z,9.10
2023-01-01T06:58:52.045Z,9.10
2023-01-01T07:01:26.336Z,9.10
2023-01-01T07:04:00.426Z,9.10
2023-01-01T07:06:33.142Z,9.10
2023-01-01T07:09:06.526Z,9.10
2023-01-01T07:11:41.507Z,9.10
2023-01-01T07:14:13.776Z,9.10
2023-01-01T07:16:47.017Z,9.20
2023-01-01T07:19:19.350Z,9.20
2023-01-01T07:21:53.112Z,9.20
2023-01-01T07:24:25.534Z,9.30
2023-01-01T07:26:57.771Z,9.30
2023-01-01T07:29:30.030Z,9.30
2023-01-01T07:32:02.396Z,9.30
2023-01-01T07:34:34.622Z,9.30
2023-01-01T07:37:06.925Z,9.40
2023-01-01T07:39:39.285Z,9.40
2023-01-01T07:42:11.696Z,9.40
2023-01-01T07:44:44.395Z,9.40
2023-01-01T07:47:25.443Z,9.40
2023-01-01T07:49:57.723Z,9.40
2023-01-01T07:52:29.934Z,9.50
2023-01-01T07:55:02.228Z,9.60
2023-01-01T07:57:34.562Z,9.50
2023-01-01T08:00:07.491Z,9.60
2023-01-01T08:02:45.662Z,9.60
2023-01-01T08:05:24.292Z,9.60
2023-01-01T08:07:59.220Z,9.70
2023-01-01T08:10:31.881Z,9.70
2023-01-01T08:13:05.969Z,9.80
2023-01-01T08:15:38.308Z,9.80
2023-01-01T08:18:10.714Z,9.90
2023-01-01T08:20:43.026Z,9.90
2023-01-01T08:23:15.366Z,10.00
2023-01-01T08:25:47.982Z,10.10
2023-01-01T08:28:20.510Z,10.10
2023-01-01T08:30:53.018Z,10.20
2023-01-01T08:33:26.338Z,10.30
2023-01-01T08:35:58.805Z,10.30
2023-01-01T08:38:31.039Z,10.40
2023-01-01T08:41:03.367Z,10.50
2023-01-01T08:43:35.816Z,10.50
2023-01-01T08:46:08.790Z,10.50
2023-01-01T08:48:41.384Z,10.50
2023-01-01T08:51:13.762Z,10.60
2023-01-01T08:53:50.957Z,10.60
2023-01-01T08:56:23.597Z,10.60
2023-01-01T08:59:01.810Z,10.60
2023-01-01T09:01:37.165Z,10.50
2023-01-01T09:04:15.698Z,10.40
2023-01-01T09:06:48.571Z,10.40
2023-01-01T09:09:24.302Z,10.30
2023-01-01T09:12:04.399Z,10.30
2023-01-01T09:14:36.948Z,10.30
2023-01-01T09:17:09.452Z,10.30
2023-01-01T09:19:41.902Z,10.30
2023-01-01T09:22:14.338Z,10.20
2023-01-01T09:24:46.886Z,10.30
2023-01-01T09:27:19.363Z,10.20
2023-01-01T09:29:51.779Z,10.20
2023-01-01T09:32:25.957Z,10.20
2023-01-01T09:35:00.897Z,10.20
2023-01-01T09:37:35.004Z,10.20
2023-01-01T09:40:08.899Z,10.20
2023-01-01T09:42:50.040Z,10.40
2023-01-01T09:45:25.851Z,10.40
2023-01-01T09:48:01.007Z,10.50
2023-01-01T09:50:37.377Z,10.50
2023-01-01T09:53:25.396Z,10.60
2023-01-01T09:55:58.945Z,10.60
2023-01-01T09:58:36.290Z,10.60
2023-01-01T10:01:13.299Z,10.70
2023-01-01T10:03:47.474Z,10.70
2023-01-01T10:06:35.724Z,10.70
2023-01-01T10:09:11.828Z,10.80
2023-01-01T10:11:51.043Z,10.80
2023-01-01T10:14:31.178Z,10.80
2023-01-01T10:17:06.502Z,10.80
2023-01-01T10:19:43.623Z,10.90
2023-01-01T10:22:19.399Z,10.90
2023-01-01T10:24:56.581Z,11.00
2023-01-01T10:27:29.286Z,11.00
2023-01-01T10:30:05.101Z,11.00
2023-01-01T10:32:41.171Z,11.10
2023-01-01T10:35:16.751Z,11.10
2023-01-01T10:37:50.417Z,11.10
2023-01-01T10:40:25.251Z,11.10
2023-01-01T10:42:58.707Z,11.20
2023-01-01T10:45:31.542Z,11.20
2023-01-01T10:48:13.461Z,11.20
2023-01-01T10:50:51.486Z,11.20
2023-01-01T10:53:26.015Z,11.30
2023-01-01T10:56:00.888Z,11.30
2023-01-01T10:58:33.743Z,11.30
2023-01-01T11:01:08.067Z,11.40
2023-01-01T11:03:53.923Z,11.40
2023-01-01T11:06:28.393Z,11.40
2023-01-01T11:09:03.740Z,11.40
2023-01-01T11:11:44.742Z,11.40
2023-01-01T11:14:22.127Z,11.40
2023-01-01T11:16:55.838Z,11.50
2023-01-01T11:19:30.059Z,11.40
2023-01-01T11:22:02.913Z,11.50
2023-01-01T11:24:36.066Z,11.50
2023-01-01T11:27:23.796Z,11.50
2023-01-01T11:30:11.913Z,11.50
2023-01-01T11:32:44.556Z,11.50
2023-01-01T11:35:20.767Z,11.50
2023-01-01T11:37:54.445Z,11.50
2023-01-01T11:40:33.982Z,11.50
2023-01-01T11:43:07.256Z,11.40
2023-01-01T11:45:41.128Z,11.40
2023-01-01T11:48:16.562Z,11.50
2023-01-01T11:50:53.962Z,11.50
2023-01-01T11:53:30.114Z,11.50
2023-01-01T11:56:02.696Z,11.50
2023-01-01T11:58:35.381Z,11.50
2023-01-01T12:01:13.397Z,11.50
2023-01-01T12:03:49.946Z,11.60
2023-01-01T12:06:27.272Z,11.60
2023-01-01T12:09:18.527Z,11.60
2023-01-01T12:11:53.152Z,11.60
2023-01-01T12:14:35.768Z,11.60
2023-01-01T12:17:24.114Z,11.60
2023-01-01T12:20:03.601Z,11.70
2023-01-01T12:22:36.132Z,11.70
2023-01-01T12:25:12.299Z,11.80
2023-01-01T12:27:59.821Z,11.80
2023-01-01T12:30:37.637Z,11.80
2023-01-01T12:33:25.981Z,11.70
2023-01-01T12:35:58.762Z,11.80
2023-01-01T12:38:46.825Z,11.80
2023-01-01T12:41:34.991Z,11.80
2023-01-01T12:44:18.368Z,11.70
2023-01-01T12:46:58.001Z,11.80
2023-01-01T12:49:38.237Z,11.80
2023-01-01T12:52:28.087Z,11.80
2023-01-01T12:55:15.683Z,11.80
2023-01-01T12:58:03.896Z,11.80
2023-01-01T13:00:39.014Z,11.80
2023-01-01T13:03:18.739Z,11.80
2023-01-01T13:05:53.335Z,11.80
2023-01-01T13:08:25.914Z,11.90
2023-01-01T13:10:59.439Z,11.80
2023-01-01T13:13:32.399Z,11.90
2023-01-01T13:16:05.178Z,11.80
2023-01-01T13:18:38.526Z,11.80
2023-01-01T13:21:18.849Z,11.80
2023-01-01T13:23:52.199Z,11.80
2023-01-01T13:26:27.948Z,11.70
2023-01-01T13:29:01.943Z,11.80
2023-01-01T13:31:42.317Z,11.80
2023-01-01T13:34:30.103Z,11.80
2023-01-01T13:37:18.387Z,11.80
2023-01-01T13:39:52.450Z,11.80
2023-01-01T13:42:39.945Z,11.80
2023-01-01T13:45:20.822Z,11.80
2023-01-01T13:48:10.950Z,11.80
2023-01-01T13:50:59.246Z,11.80
2023-01-01T13:53:32.067Z,11.80
2023-01-01T13:56:12.113Z,11.70
2023-01-01T13:59:00.250Z,11.70
2023-01-01T14:01:36.097Z,11.70
2023-01-01T14:04:13.824Z,11.60
2023-01-01T14:06:50.045Z,11.60
2023-01-01T14:09:22.668Z,11.50
2023-01-01T14:11:55.148Z,11.50
2023-01-01T14:14:28.722Z,11.40
2023-01-01T14:17:02.816Z,11.40
2023-01-01T14:19:35.915Z,11.30
2023-01-01T14:22:09.313Z,11.30
2023-01-01T14:24:43.762Z,11.30
2023-01-01T14:27:19.935Z,11.30
2023-01-01T14:29:52.584Z,11.30
2023-01-01T14:32:25.747Z,11.30
2023-01-01T14:34:58.783Z,11.30
2023-01-01T14:37:32.139Z,11.30
2023-01-01T14:40:07.020Z,11.30
2023-01-01T14:42:40.266Z,11.30
2023-01-01T14:45:14.870Z,11.20
2023-01-01T14:47:49.333Z,11.20
2023-01-01T14:50:24.409Z,11.20
2023-01-01T14:53:03.132Z,11.20
2023-01-01T14:55:39.666Z,11.10
2023-01-01T14:58:15.853Z,11.10
2023-01-01T15:00:48.288Z,11.00
2023-01-01T15:03:21.830Z,11.00
2023-01-01T15:05:58.432Z,10.90
2023-01-01T15:08:30.978Z,10.90
2023-01-01T15:11:03.567Z,10.90
2023-01-01T15:13:35.938Z,10.90
2023-01-01T15:16:24.488Z,10.90
2023-01-01T15:18:58.166Z,10.80
2023-01-01T15:21:31.347Z,10.80
2023-01-01T15:24:10.993Z,10.80
2023-01-01T15:26:49.095Z,10.80
2023-01-01T15:29:27.797Z,10.70
2023-01-01T15:32:01.881Z,10.70
2023-01-01T15:34:35.842Z,10.70
2023-01-01T15:37:12.999Z,10.70
2023-01-01T15:39:48.795Z,10.70
2023-01-01T15:42:24.450Z,10.60
2023-01-01T15:44:57.071Z,10.60
2023-01-01T15:47:29.362Z,10.60
2023-01-01T15:50:10.455Z,10.50
2023-01-01T15:52:43.313Z,10.50
2023-01-01T15:55:16.399Z,10.50
2023-01-01T15:57:49.965Z,10.50
2023-01-01T16:00:26.286Z,10.50
2023-01-01T16:03:01.553Z,10.40
2023-01-01T16:05:34.002Z,10.50
2023-01-01T16:08:06.693Z,10.40
2023-01-01T16:10:39.023Z,10.40
2023-01-01T16:13:13.062Z,10.40
2023-01-01T16:15:49.790Z,10.50
2023-01-01T16:18:23.028Z,10.40
2023-01-01T16:20:55.749Z,10.50
2023-01-01T16:23:28.370Z,10.40
2023-01-01T16:26:01.259Z,10.40
2023-01-01T16:28:33.738Z,10.40
2023-01-01T16:31:06.544Z,10.30
2023-01-01T16:33:39.236Z,10.30
2023-01-01T16:36:12.588Z,10.30
2023-01-01T16:38:45.060Z,10.30
2023-01-01T16:41:18.515Z,10.20
2023-01-01T16:43:50.967Z,10.30
2023-01-01T16:46:24.310Z,10.20
2023-01-01T16:48:56.961Z,10.20
2023-01-01T16:51:30.156Z,10.30
2023-01-01T16:54:02.609Z,10.30
2023-01-01T16:56:35.079Z,10.30
2023-01-01T16:59:07.403Z,10.30
2023-01-01T17:01:39.935Z,10.30
2023-01-01T17:04:12.548Z,10.30
2023-01-01T17:06:44.880Z,10.30
2023-01-01T17:09:17.227Z,10.30
2023-01-01T17:11:49.934Z,10.30
2023-01-01T17:14:23.150Z,10.30
2023-01-01T17:16:56.690Z,10.30
2023-01-01T17:19:29.565Z,10.20
2023-01-01T17:22:02.035Z,10.30
2023-01-01T17:24:36.231Z,10.20
2023-01-01T17:31:02.389Z,10.30
2023-01-01T17:33:35.334Z,10.30
2023-01-01T17:36:08.100Z,10.30
2023-01-01T17:38:40.507Z,10.30
2023-01-01T17:41:15.093Z,10.40
2023-01-01T17:43:49.129Z,10.30
2023-01-01T17:46:23.014Z,10.30
2023-01-01T17:48:56.013Z,10.30
2023-01-01T17:51:33.950Z,10.20
2023-01-01T17:54:10.439Z,10.20
2023-01-01T17:56:43.117Z,10.30
2023-01-01T17:59:15.790Z,10.30
2023-01-01T18:01:48.376Z,10.30
2023-01-01T18:04:21.165Z,10.30
2023-01-01T18:06:56.734Z,10.30
2023-01-01T18:09:31.320Z,10.30
2023-01-01T18:12:04.390Z,10.20
2023-01-01T18:14:36.998Z,10.20
2023-01-01T18:17:09.432Z,10.20
2023-01-01T18:19:41.965Z,10.20
2023-01-01T18:22:14.395Z,10.20
2023-01-01T18:24:46.820Z,10.20
2023-01-01T18:27:19.333Z,10.20
2023-01-01T18:29:51.917Z,10.20
2023-01-01T18:32:24.368Z,10.20
2023-01-01T18:34:57.473Z,10.10
2023-01-01T18:37:30.409Z,10.10
2023-01-01T18:40:06.415Z,10.10
2023-01-01T18:42:54.363Z,10.10
2023-01-01T18:45:26.718Z,10.10
2023-01-01T18:48:01.482Z,10.10
2023-01-01T18:50:36.053Z,10.10
2023-01-01T18:53:09.872Z,10.10
2023-01-01T18:55:42.298Z,10.20
2023-01-01T18:58:17.504Z,10.20
2023-01-01T19:00:52.061Z,10.10
2023-01-01T19:03:28.619Z,10.20
2023-01-01T19:06:01.317Z,10.10
2023-01-01T19:08:33.674Z,10.10
2023-01-01T19:11:08.363Z,10.10
2023-01-01T19:13:40.825Z,10.10
2023-01-01T19:16:13.574Z,10.10
2023-01-01T19:18:46.316Z,10.10
2023-01-01T19:21:26.445Z,10.00
2023-01-01T19:24:00.976Z,10.00
2023-01-01T19:26:34.437Z,10.00
2023-01-01T19:29:13.163Z,10.00
2023-01-01T19:31:49.382Z,9.90
2023-01-01T19:34:22.918Z,9.90
2023-01-01T19:36:57.206Z,9.90
2023-01-01T19:39:31.675Z,9.90
2023-01-01T19:42:05.237Z,9.90
2023-01-01T19:44:38.050Z,9.90
2023-01-01T19:47:11.830Z,9.90
2023-01-01T19:49:47.279Z,9.90
2023-01-01T19:52:23.546Z,9.90
2023-01-01T19:54:56.041Z,9.90
2023-01-01T19:57:28.427Z,9.90
2023-01-01T20:00:01.108Z,9.90
2023-01-01T20:02:49.347Z,9.90
2023-01-01T20:05:23.498Z,9.90
2023-01-01T20:07:58.163Z,9.90
2023-01-01T20:10:31.798Z,9.90
2023-01-01T20:13:04.859Z,9.90
2023-01-01T20:18:59.795Z,9.90
2023-01-01T20:21:48.774Z,9.90
2023-01-01T20:24:21.345Z,10.00
2023-01-01T20:26:53.945Z,10.00
2023-01-01T20:29:26.408Z,10.00
2023-01-01T20:31:59.594Z,10.00
2023-01-01T20:34:32.763Z,10.00
2023-01-01T20:37:20.645Z,10.00
2023-01-01T20:39:53.069Z,10.00
2023-01-01T20:42:26.827Z,10.00
2023-01-01T20:44:59.344Z,9.90
2023-01-01T20:47:31.728Z,10.00
2023-01-01T20:50:04.542Z,9.90
2023-01-01T20:52:37.037Z,9.90
2023-01-01T20:55:09.637Z,9.90
2023-01-01T20:57:42.161Z,9.90
2023-01-01T21:00:14.806Z,9.90
2023-01-01T21:02:48.622Z,10.00
2023-01-01T21:05:21.251Z,10.00
2023-01-01T21:07:53.471Z,10.00
2023-01-01T21:10:25.909Z,10.00
2023-01-01T21:12:58.234Z,10.00
2023-01-01T21:15:30.695Z,10.00
2023-01-01T21:18:04.926Z,10.00
2023-01-01T21:20:45.772Z,10.00
2023-01-01T21:23:23.096Z,9.90
2023-01-01T21:25:55.740Z,9.90
2023-01-01T21:28:28.907Z,9.90
2023-01-01T21:31:01.366Z,9.90
2023-01-01T21:33:35.025Z,9.90
2023-01-01T21:36:14.809Z,9.80
2023-01-01T21:38:49.243Z,9.80
2023-01-01T21:41:23.977Z,9.80
2023-01-01T21:43:57.077Z,9.80
2023-01-01T21:46:30.656Z,9.80
2023-01-01T21:49:13.650Z,9.80
2023-01-01T21:51:51.588Z,9.70
2023-01-01T21:54:32.982Z,9.80
2023-01-01T21:57:18.798Z,9.70
2023-01-01T21:59:52.142Z,9.70
2023-01-01T22:02:31.314Z,9.70
2023-01-01T22:05:17.919Z,9.70
2023-01-01T22:07:58.516Z,9.70
2023-01-01T22:10:34.606Z,9.70
2023-01-01T22:13:13.060Z,9.70
2023-01-01T22:15:46.049Z,9.70
2023-01-01T22:18:21.813Z,9.70
2023-01-01T22:20:54.335Z,9.70
2023-01-01T22:23:42.275Z,9.70
2023-01-01T22:26:19.166Z,9.60
2023-01-01T22:28:52.960Z,9.70
2023-01-01T22:31:26.794Z,9.60
2023-01-01T22:34:00.937Z,9.70
2023-01-01T22:36:34.904Z,9.70
2023-01-01T22:39:14.637Z,9.70
2023-01-01T22:41:49.664Z,9.70
2023-01-01T22:44:24.655Z,9.70
2023-01-01T22:46:58.998Z,9.70
2023-01-01T22:49:32.551Z,9.70
2023-01-01T22:52:04.898Z,9.70
2023-01-01T22:54:37.224Z,9.70
2023-01-01T22:57:11.212Z,9.80
2023-01-01T22:59:43.829Z,9.80
2023-01-01T23:02:16.241Z,9.80
2023-01-01T23:04:48.696Z,9.90
2023-01-01T23:07:21.055Z,9.80
2023-01-01T23:09:53.766Z,9.90
2023-01-01T23:12:26.348Z,9.90
2023-01-01T23:15:13.957Z,9.90
2023-01-01T23:17:46.158Z,9.90
2023-01-01T23:20:18.829Z,9.90
2023-01-01T23:22:52.580Z,9.90
2023-01-01T23:25:25.176Z,9.90
2023-01-01T23:27:57.631Z,9.90
2023-01-01T23:30:30.060Z,9.90
2023-01-01T23:33:02.428Z,9.80
2023-01-01T23:35:34.894Z,9.80
2023-01-01T23:38:07.635Z,9.80
2023-01-01T23:40:40.052Z,9.80
2023-01-01T23:43:12.396Z,9.80
2023-01-01T23:45:45.150Z,9.90
2023-01-01T23:48:17.601Z,9.80
2023-01-01T23:50:50.066Z,9.90
2023-01-01T23:53:22.385Z,9.90
2023-01-01T23:55:54.698Z,9.90
2023-01-01T23:58:27.566Z,9.90
